Time;durP1;ratioP1;P1;durP2;ratioP2;P2;SDS_P1;SDS_P2;PMS_P1;PMS_P2;Temp;Humidity;BMP_temperature;BMP_pressure;BME280_temperature;BME280_humidity;BME280_pressure;Samples;Min_cycle;Max_cycle;Signal;HPM_P1;HPM_P2
2024/03/30 00:00:45;;;;;;;4.93;4.60;;;10.70;99.90;;;;;;5024012;28;20474;-71
2024/03/30 00:03:12;;;;;;;5.40;5.00;;;10.70;99.90;;;;;;5020577;28;20487;-71
2024/03/30 00:05:39;;;;;;;5.43;4.93;;;10.70;99.90;;;;;;5023716;28;20478;-71
2024/03/30 00:08:06;;;;;;;4.93;4.53;;;10.70;99.90;;;;;;5023829;28;20470;-71
2024/03/30 00:10:33;;;;;;;5.43;4.93;;;10.70;99.90;;;;;;5017841;28;20494;-71
2024/03/30 00:13:00;;;;;;;5.03;4.60;;;10.70;99.90;;;;;;5021270;28;20574;-71
2024/03/30 00:15:28;;;;;;;4.90;4.50;;;10.70;99.90;;;;;;5023478;28;20483;-72
2024/03/30 00:17:55;;;;;;;5.43;5.03;;;10.70;99.90;;;;;;5023384;28;21038;-71
2024/03/30 00:20:23;;;;;;;5.00;4.60;;;10.70;99.90;;;;;;5020810;28;20500;-71
2024/03/30 00:22:49;;;;;;;4.63;4.30;;;10.70;99.90;;;;;;5023252;28;20506;-71
2024/03/30 00:25:18;;;;;;;4.80;4.40;;;10.70;99.90;;;;;;5024387;28;20494;-71
2024/03/30 00:27:44;;;;;;;4.90;4.50;;;10.60;99.90;;;;;;5023444;28;20486;-71
2024/03/30 00:30:11;;;;;;;4.90;4.47;;;10.60;99.90;;;;;;5013705;28;20479;-71
2024/03/30 00:32:37;;;;;;;4.57;4.10;;;10.60;99.90;;;;;;5022960;28;20495;-71
2024/03/30 00:35:06;;;;;;;4.00;3.70;;;10.60;99.90;;;;;;5021402;28;20838;-71
2024/03/30 00:37:32;;;;;;;4.60;4.20;;;10.60;99.90;;;;;;5023485;28;20475;-71
2024/03/30 00:39:59;;;;;;;4.80;4.50;;;10.60;99.90;;;;;;5020595;28;20995;-71
2024/03/30 00:42:26;;;;;;;5.03;4.63;;;10.60;99.90;;;;;;5028480;28;20463;-71
2024/03/30 00:44:53;;;;;;;5.93;4.00;;;10.60;99.90;;;;;;5027319;28;20541;-71
2024/03/30 00:47:19;;;;;;;4.87;4.40;;;10.60;99.90;;;;;;5028015;28;20467;-71
2024/03/30 00:49:46;;;;;;;4.73;4.43;;;10.60;99.90;;;;;;5020585;28;20483;-71
2024/03/30 00:52:14;;;;;;;4.23;3.93;;;10.60;99.90;;;;;;5027761;28;20532;-71
2024/03/30 00:54:41;;;;;;;4.10;3.80;;;10.60;99.90;;;;;;5025788;28;20472;-71
2024/03/30 00:57:07;;;;;;;4.57;4.17;;;10.50;99.90;;;;;;5020368;28;20463;-71
2024/03/30 00:59:36;;;;;;;4.63;4.23;;;10.50;99.90;;;;;;5026911;28;20847;-71
2024/03/30 01:02:03;;;;;;;3.80;3.50;;;10.50;99.90;;;;;;5026478;28;20464;-71
2024/03/30 01:04:30;;;;;;;4.47;4.10;;;10.50;99.90;;;;;;5025212;28;20641;-71
2024/03/30 01:06:58;;;;;;;4.20;3.90;;;10.50;99.90;;;;;;5025104;28;20467;-71
2024/03/30 01:09:26;;;;;;;4.57;4.17;;;10.50;99.90;;;;;;5026824;28;21002;-71
2024/03/30 01:11:53;;;;;;;4.30;4.00;;;10.50;99.90;;;;;;5027973;28;20881;-71
2024/03/30 01:14:21;;;;;;;5.47;4.53;;;10.50;99.90;;;;;;5026486;28;20490;-71
2024/03/30 01:16:48;;;;;;;4.17;3.87;;;10.50;99.90;;;;;;5019603;28;20471;-71
2024/03/30 01:19:16;;;;;;;4.27;3.97;;;10.50;99.90;;;;;;5027731;28;20529;-71
2024/03/30 01:21:42;;;;;;;4.33;4.03;;;10.50;99.90;;;;;;5026953;28;20479;-71
2024/03/30 01:24:10;;;;;;;4.57;4.27;;;10.40;99.90;;;;;;5024331;28;20488;-71
2024/03/30 01:26:44;;;;;;;4.20;3.90;;;10.40;99.90;;;;;;5025105;28;21198;-72
2024/03/30 01:29:13;;;;;;;4.07;3.77;;;10.40;99.90;;;;;;5025077;28;20992;-71
2024/03/30 01:31:40;;;;;;;4.37;4.07;;;10.40;99.90;;;;;;5025598;28;20927;-71
2024/03/30 01:34:07;;;;;;;4.20;3.83;;;10.40;99.90;;;;;;5021214;28;20569;-71
2024/03/30 01:36:33;;;;;;;4.00;3.70;;;10.40;99.90;;;;;;5026986;28;20475;-71
2024/03/30 01:39:00;;;;;;;4.20;3.90;;;10.40;99.90;;;;;;5024862;28;20836;-71
2024/03/30 01:41:26;;;;;;;4.90;4.50;;;10.40;99.90;;;;;;5025179;28;20462;-71
2024/03/30 01:43:58;;;;;;;4.10;3.80;;;10.50;99.90;;;;;;5017136;28;21234;-71
2024/03/30 01:46:26;;;;;;;4.13;3.83;;;10.50;99.90;;;;;;5025414;28;20463;-71
2024/03/30 01:48:53;;;;;;;4.80;4.40;;;10.40;99.90;;;;;;5017899;28;20486;-71
2024/03/30 01:51:19;;;;;;;5.03;4.53;;;10.40;99.90;;;;;;5023171;28;20574;-71
2024/03/30 01:53:47;;;;;;;4.10;3.80;;;10.40;99.90;;;;;;5025012;28;20488;-71
2024/03/30 01:56:13;;;;;;;3.87;3.57;;;10.40;99.90;;;;;;5026543;28;20476;-71
2024/03/30 01:58:41;;;;;;;4.23;3.73;;;10.40;99.90;;;;;;5023697;28;20995;-71
2024/03/30 02:01:11;;;;;;;4.20;3.90;;;10.40;99.90;;;;;;5026253;28;20498;-72
2024/03/30 02:03:38;;;;;;;4.23;3.93;;;10.40;99.90;;;;;;5025716;28;20483;-71
2024/03/30 02:06:05;;;;;;;4.50;4.20;;;10.40;99.90;;;;;;5022086;28;20957;-71
2024/03/30 02:08:33;;;;;;;4.27;3.97;;;10.40;99.90;;;;;;5020680;28;20985;-71
2024/03/30 02:11:01;;;;;;;3.87;3.57;;;10.40;99.90;;;;;;5024287;28;20498;-72
2024/03/30 02:13:29;;;;;;;4.20;3.90;;;10.40;99.90;;;;;;5024105;28;20507;-71
2024/03/30 02:15:55;;;;;;;4.20;3.90;;;10.40;99.90;;;;;;5020784;28;20475;-71
2024/03/30 02:18:23;;;;;;;4.37;3.97;;;10.40;99.90;;;;;;5027014;28;20467;-72
2024/03/30 02:20:49;;;;;;;4.87;4.47;;;10.40;99.90;;;;;;5024002;28;20472;-71
2024/03/30 02:23:18;;;;;;;4.30;3.90;;;10.40;99.90;;;;;;5017274;28;20487;-71
2024/03/30 02:25:44;;;;;;;3.83;3.53;;;10.40;99.90;;;;;;5026415;28;20533;-71
2024/03/30 02:28:12;;;;;;;3.67;3.37;;;10.40;99.90;;;;;;5024206;28;20821;-71
2024/03/30 02:30:41;;;;;;;5.03;4.63;;;10.40;99.90;;;;;;5019072;28;20537;-71
2024/03/30 02:33:08;;;;;;;4.10;3.80;;;10.50;99.90;;;;;;5023450;28;21012;-71
2024/03/30 02:35:35;;;;;;;3.73;3.53;;;10.50;99.90;;;;;;5025197;28;20529;-71
2024/03/30 02:38:02;;;;;;;3.50;3.20;;;10.40;99.90;;;;;;5019420;28;20904;-71
2024/03/30 02:40:29;;;;;;;3.30;3.10;;;10.40;99.90;;;;;;5023586;28;20479;-71
2024/03/30 02:42:56;;;;;;;3.90;3.60;;;10.40;99.90;;;;;;5024171;28;20513;-71
2024/03/30 02:45:23;;;;;;;3.10;2.83;;;10.40;99.90;;;;;;5024679;28;21113;-71
2024/03/30 02:47:50;;;;;;;3.80;3.50;;;10.40;99.90;;;;;;5018086;28;20624;-71
2024/03/30 02:50:16;;;;;;;3.70;3.50;;;10.40;99.90;;;;;;5023219;28;20526;-72
2024/03/30 02:52:43;;;;;;;3.50;3.27;;;10.40;99.90;;;;;;5026866;28;20487;-71
2024/03/30 02:55:09;;;;;;;3.47;3.27;;;10.40;99.90;;;;;;5023738;28;20531;-72
2024/03/30 02:57:37;;;;;;;3.60;3.30;;;10.40;99.90;;;;;;5025043;28;20463;-71
2024/03/30 03:00:08;;;;;;;3.40;3.20;;;10.50;99.90;;;;;;5023728;28;20483;-71
2024/03/30 03:02:35;;;;;;;3.70;3.40;;;10.40;99.90;;;;;;5025583;28;20497;-71
2024/03/30 03:05:01;;;;;;;3.87;3.57;;;10.40;99.90;;;;;;5022122;28;21202;-71
2024/03/30 03:07:28;;;;;;;3.20;2.90;;;10.40;99.90;;;;;;5021925;28;20949;-71
2024/03/30 03:09:54;;;;;;;3.50;3.20;;;10.40;99.90;;;;;;5022907;28;20483;-71
2024/03/30 03:12:22;;;;;;;3.60;3.30;;;10.40;99.90;;;;;;5024930;28;21050;-71
2024/03/30 03:14:49;;;;;;;3.20;2.90;;;10.30;99.90;;;;;;5026217;28;20471;-71
2024/03/30 03:17:16;;;;;;;3.17;2.97;;;10.40;99.90;;;;;;5022609;28;20471;-71
2024/03/30 03:19:42;;;;;;;3.57;3.00;;;10.40;99.90;;;;;;5022596;28;20467;-71
2024/03/30 03:22:09;;;;;;;3.20;3.00;;;10.50;99.90;;;;;;5025388;28;20529;-71
2024/03/30 03:24:36;;;;;;;3.00;2.80;;;10.50;99.90;;;;;;5023092;28;20491;-71
2024/03/30 03:27:03;;;;;;;3.30;3.00;;;10.50;99.90;;;;;;5023449;28;21067;-71
2024/03/30 03:29:29;;;;;;;2.87;2.67;;;10.50;99.90;;;;;;5016332;28;20475;-71
2024/03/30 03:31:58;;;;;;;2.93;2.73;;;10.50;99.90;;;;;;5022997;28;20490;-71
2024/03/30 03:34:24;;;;;;;3.23;2.93;;;10.50;99.90;;;;;;5024801;28;20549;-71
2024/03/30 03:36:51;;;;;;;2.70;2.50;;;10.40;99.90;;;;;;5022410;28;20829;-71
2024/03/30 03:39:17;;;;;;;3.50;3.20;;;10.40;99.90;;;;;;5023765;28;20471;-71
2024/03/30 03:41:44;;;;;;;3.20;2.90;;;10.50;99.90;;;;;;5022396;28;20542;-71
2024/03/30 03:44:10;;;;;;;2.93;2.73;;;10.50;99.90;;;;;;5020774;28;20830;-71
2024/03/30 03:46:37;;;;;;;3.57;2.90;;;10.50;99.90;;;;;;5023492;28;20848;-71
2024/03/30 03:49:05;;;;;;;2.73;2.60;;;10.50;99.90;;;;;;5024350;28;20483;-72
2024/03/30 03:51:32;;;;;;;3.23;3.03;;;10.50;99.90;;;;;;5014925;28;20502;-71
2024/03/30 03:53:58;;;;;;;3.07;2.87;;;10.50;99.90;;;;;;5024967;28;20491;-71
2024/03/30 03:56:25;;;;;;;3.67;3.33;;;10.50;99.90;;;;;;5024773;28;20486;-71
2024/03/30 03:58:51;;;;;;;3.40;3.10;;;10.50;99.90;;;;;;5024533;28;20463;-71
2024/03/30 04:01:19;;;;;;;3.20;3.00;;;10.50;99.90;;;;;;5019078;28;20487;-71
2024/03/30 04:03:46;;;;;;;2.73;2.63;;;10.40;99.90;;;;;;5022272;28;20499;-71
2024/03/30 04:06:15;;;;;;;2.57;2.37;;;10.40;99.90;;;;;;5024790;28;20463;-71
2024/03/30 04:08:41;;;;;;;3.53;2.63;;;10.40;99.90;;;;;;5023449;28;20474;-71
2024/03/30 04:11:08;;;;;;;2.87;2.67;;;10.40;99.90;;;;;;5021547;28;20487;-72
2024/03/30 04:13:34;;;;;;;2.60;2.40;;;10.40;99.90;;;;;;5022481;28;20553;-72
2024/03/30 04:16:03;;;;;;;2.67;2.47;;;10.40;99.90;;;;;;5021220;28;20468;-71
2024/03/30 04:18:29;;;;;;;2.87;2.67;;;10.40;99.90;;;;;;5023763;28;20475;-72
2024/03/30 04:20:57;;;;;;;2.97;2.77;;;10.40;99.90;;;;;;5018796;28;20495;-71
2024/03/30 04:23:29;;;;;;;2.50;2.40;;;10.40;99.90;;;;;;5024235;28;20502;-72
2024/03/30 04:26:04;;;;;;;3.33;3.10;;;10.40;99.90;;;;;;5023486;28;20475;-72
2024/03/30 04:28:30;;;;;;;2.87;2.67;;;10.40;99.90;;;;;;5024149;28;21033;-72
2024/03/30 04:30:58;;;;;;;2.90;2.70;;;10.40;99.90;;;;;;5017261;28;20479;-72
2024/03/30 04:33:24;;;;;;;2.50;2.40;;;10.40;99.90;;;;;;5024510;28;20487;-71
2024/03/30 04:35:56;;;;;;;3.10;2.60;;;10.50;99.90;;;;;;5021874;28;20471;-71
2024/03/30 04:38:23;;;;;;;3.10;2.80;;;10.40;99.90;;;;;;5022656;28;20506;-73
2024/03/30 04:40:59;;;;;;;2.77;2.57;;;10.40;99.90;;;;;;5021088;28;20475;-71
2024/03/30 04:43:26;;;;;;;2.90;2.70;;;10.40;99.90;;;;;;5023561;28;20486;-71
2024/03/30 04:45:53;;;;;;;3.00;2.80;;;10.40;99.90;;;;;;5022934;28;21044;-71
2024/03/30 04:48:20;;;;;;;2.67;2.47;;;10.40;99.90;;;;;;5023663;28;20761;-71
2024/03/30 04:50:46;;;;;;;3.17;2.87;;;10.40;99.90;;;;;;5024248;28;20483;-72
2024/03/30 04:53:17;;;;;;;3.20;3.00;;;10.40;99.90;;;;;;5022565;28;20503;-71
2024/03/30 04:55:51;;;;;;;3.20;3.00;;;10.40;99.90;;;;;;5021207;28;20478;-71
2024/03/30 04:58:21;;;;;;;3.50;3.20;;;10.40;99.90;;;;;;5024617;28;20825;-72
2024/03/30 05:00:48;;;;;;;3.13;2.93;;;10.40;99.90;;;;;;5024320;28;20494;-71
2024/03/30 05:03:15;;;;;;;3.30;3.00;;;10.40;99.90;;;;;;5021266;28;20490;-71
2024/03/30 05:05:42;;;;;;;3.07;2.73;;;10.40;99.90;;;;;;5021552;28;20468;-71
2024/03/30 05:08:09;;;;;;;3.60;3.30;;;10.40;99.90;;;;;;5024063;28;20841;-71
2024/03/30 05:10:36;;;;;;;3.07;2.87;;;10.40;99.90;;;;;;5023955;28;20478;-71
2024/03/30 05:13:04;;;;;;;3.07;2.87;;;10.40;99.90;;;;;;5021102;28;20498;-71
2024/03/30 05:15:31;;;;;;;3.10;2.90;;;10.40;99.90;;;;;;5023307;28;20479;-71
2024/03/30 05:17:59;;;;;;;4.20;3.30;;;10.40;99.90;;;;;;5022197;28;20467;-72
2024/03/30 05:20:49;;;;;;;3.00;2.80;;;10.40;99.90;;;;;;5020275;28;20479;-71
2024/03/30 05:23:17;;;;;;;2.87;2.67;;;10.40;99.90;;;;;;5021268;28;20492;-71
2024/03/30 05:25:44;;;;;;;3.43;2.93;;;10.30;99.90;;;;;;5025041;28;20472;-71
2024/03/30 05:28:11;;;;;;;3.43;3.13;;;10.30;99.90;;;;;;5022315;28;20479;-71
2024/03/30 05:30:39;;;;;;;3.30;3.00;;;10.30;99.90;;;;;;5023855;28;21003;-71
2024/03/30 05:33:06;;;;;;;3.73;3.30;;;10.30;99.90;;;;;;5020471;28;20492;-71
2024/03/30 05:35:32;;;;;;;3.60;3.30;;;10.30;99.90;;;;;;5024957;28;20478;-71
2024/03/30 05:37:59;;;;;;;3.77;3.47;;;10.30;99.90;;;;;;5023280;28;20471;-71
2024/03/30 05:40:25;;;;;;;3.40;3.10;;;10.30;99.90;;;;;;5023110;28;20575;-72
2024/03/30 05:42:53;;;;;;;3.70;3.23;;;10.40;99.90;;;;;;5027002;28;20486;-72
2024/03/30 05:45:19;;;;;;;3.73;3.43;;;10.30;99.90;;;;;;5027902;28;20471;-71
2024/03/30 05:47:47;;;;;;;3.63;3.37;;;10.40;99.90;;;;;;5023852;28;20478;-71
2024/03/30 05:50:14;;;;;;;3.77;3.47;;;10.40;99.90;;;;;;5026463;28;20518;-71
2024/03/30 05:52:41;;;;;;;4.37;3.77;;;10.40;99.90;;;;;;5025003;28;20487;-71
2024/03/30 05:55:07;;;;;;;3.60;3.40;;;10.40;99.90;;;;;;5019694;28;20468;-71
2024/03/30 05:57:34;;;;;;;3.60;3.30;;;10.40;99.90;;;;;;5018831;28;20478;-71
2024/03/30 06:00:01;;;;;;;4.00;3.70;;;10.40;99.90;;;;;;5024314;28;20518;-71
2024/03/30 06:02:27;;;;;;;3.90;3.60;;;10.40;99.90;;;;;;5027163;28;20478;-72
2024/03/30 06:04:55;;;;;;;3.60;3.30;;;10.40;99.90;;;;;;5022550;28;20476;-73
2024/03/30 06:07:21;;;;;;;4.20;3.30;;;10.40;99.90;;;;;;5026044;28;20466;-72
2024/03/30 06:09:50;;;;;;;3.70;3.50;;;10.50;99.90;;;;;;5024756;28;20468;-71
2024/03/30 06:12:16;;;;;;;3.50;3.30;;;10.50;99.90;;;;;;5025763;28;20494;-72
2024/03/30 06:14:46;;;;;;;3.63;3.33;;;10.50;99.90;;;;;;5024042;28;20837;-71
2024/03/30 06:17:12;;;;;;;4.40;3.53;;;10.50;99.90;;;;;;5025503;28;20494;-72
2024/03/30 06:19:39;;;;;;;3.77;3.47;;;10.50;99.90;;;;;;5020138;28;20467;-71
2024/03/30 06:22:07;;;;;;;5.10;3.47;;;10.50;99.90;;;;;;5042489;28;20880;-71
2024/03/30 06:24:36;;;;;;;3.53;3.30;;;10.60;99.90;;;;;;5024543;28;20492;-72
2024/03/30 06:27:03;;;;;;;4.17;3.77;;;10.60;99.90;;;;;;5025165;28;20498;-71
2024/03/30 06:29:30;;;;;;;3.10;2.90;;;10.60;99.90;;;;;;5025465;28;20474;-71
2024/03/30 06:31:56;;;;;;;3.47;3.27;;;10.60;99.90;;;;;;5023680;28;20537;-71
2024/03/30 06:34:24;;;;;;;3.70;3.30;;;10.60;99.90;;;;;;5021047;28;20484;-71
2024/03/30 06:36:50;;;;;;;3.90;3.60;;;10.60;99.90;;;;;;5023839;28;20478;-71
2024/03/30 06:39:18;;;;;;;3.60;3.30;;;10.70;99.90;;;;;;5025069;28;20483;-72
2024/03/30 06:44:30;;;;;;;3.70;3.43;;;10.70;99.90;;;;;;5026358;28;20495;-71
2024/03/30 06:46:57;;;;;;;3.23;2.90;;;10.80;99.90;;;;;;5024844;28;20472;-72
2024/03/30 06:49:24;;;;;;;5.33;3.53;;;10.70;99.90;;;;;;5024784;28;20486;-71
2024/03/30 06:51:51;;;;;;;4.77;4.30;;;10.80;99.90;;;;;;5023958;28;20471;-71
2024/03/30 06:54:20;;;;;;;3.50;3.20;;;10.80;99.90;;;;;;5024127;28;21082;-71
2024/03/30 06:56:47;;;;;;;4.00;3.70;;;10.90;99.90;;;;;;5025076;28;20478;-71
2024/03/30 06:59:13;;;;;;;3.60;3.30;;;10.90;99.90;;;;;;5025445;28;20471;-70
2024/03/30 07:01:40;;;;;;;3.00;2.80;;;11.00;99.90;;;;;;5018375;28;20480;-70
2024/03/30 07:04:06;;;;;;;3.70;3.40;;;11.00;99.90;;;;;;5019533;28;20547;-71
2024/03/30 07:06:33;;;;;;;2.97;2.77;;;11.00;99.90;;;;;;5025863;28;20467;-71
2024/03/30 07:08:59;;;;;;;2.80;2.60;;;11.10;99.90;;;;;;5022227;28;20472;-71
2024/03/30 07:11:28;;;;;;;3.20;2.93;;;11.10;99.90;;;;;;5023245;28;20549;-71
2024/03/30 07:13:54;;;;;;;3.73;3.43;;;11.10;99.90;;;;;;5021498;28;20514;-71
2024/03/30 07:16:22;;;;;;;3.17;2.93;;;11.20;99.90;;;;;;5025189;28;20491;-72
2024/03/30 07:18:49;;;;;;;3.30;3.00;;;11.20;99.90;;;;;;5024013;28;20464;-71
2024/03/30 07:21:17;;;;;;;3.00;2.80;;;11.20;99.90;;;;;;5016136;28;20495;-71
2024/03/30 07:23:43;;;;;;;3.90;3.60;;;11.20;99.90;;;;;;5025095;28;20494;-71
2024/03/30 07:26:10;;;;;;;3.70;3.40;;;11.30;99.90;;;;;;5025093;28;20480;-71
2024/03/30 07:28:37;;;;;;;3.00;2.80;;;11.30;99.90;;;;;;5024951;28;20533;-71
2024/03/30 07:31:06;;;;;;;3.63;3.33;;;11.40;99.90;;;;;;5021676;28;20864;-71
2024/03/30 07:33:33;;;;;;;3.30;3.10;;;11.40;99.90;;;;;;5025268;28;20491;-71
2024/03/30 07:36:00;;;;;;;3.50;3.20;;;11.40;99.90;;;;;;5024049;28;20486;-71
2024/03/30 07:38:31;;;;;;;3.30;3.00;;;11.50;99.90;;;;;;5022799;28;20949;-72
2024/03/30 07:40:58;;;;;;;3.30;3.00;;;11.60;99.90;;;;;;5023522;28;20514;-72
2024/03/30 07:43:25;;;;;;;3.43;3.20;;;11.60;99.90;;;;;;5024348;28;20537;-71
2024/03/30 07:45:53;;;;;;;3.43;3.13;;;11.70;99.90;;;;;;5023705;28;20473;-71
2024/03/30 07:48:19;;;;;;;3.10;2.90;;;11.70;99.90;;;;;;5015573;28;20988;-71
2024/03/30 07:50:47;;;;;;;3.03;2.80;;;11.80;99.90;;;;;;5015255;28;20498;-72
2024/03/30 07:53:13;;;;;;;3.30;2.97;;;11.80;99.90;;;;;;5022870;28;20500;-71
2024/03/30 07:55:40;;;;;;;2.87;2.67;;;11.90;99.90;;;;;;5022080;28;20474;-71
2024/03/30 07:58:06;;;;;;;3.70;3.40;;;12.00;99.90;;;;;;5021849;28;20468;-71
2024/03/30 08:00:33;;;;;;;3.77;3.20;;;12.00;99.90;;;;;;5018421;28;20761;-71
2024/03/30 08:03:01;;;;;;;3.43;2.97;;;12.10;99.90;;;;;;5022559;28;20498;-71
2024/03/30 08:05:29;;;;;;;3.40;3.20;;;12.10;99.90;;;;;;5020706;28;21030;-72
2024/03/30 08:07:55;;;;;;;2.70;2.50;;;12.20;99.90;;;;;;5024031;28;20542;-71
2024/03/30 08:10:22;;;;;;;2.67;2.47;;;12.20;99.90;;;;;;5023106;28;20490;-71
2024/03/30 08:12:49;;;;;;;2.70;2.50;;;12.30;99.90;;;;;;5022342;28;20498;-71
2024/03/30 08:15:16;;;;;;;2.67;2.47;;;12.40;99.90;;;;;;5024090;28;20480;-71
2024/03/30 08:17:43;;;;;;;2.57;2.37;;;12.50;99.90;;;;;;5023193;28;20476;-71
2024/03/30 08:20:12;;;;;;;2.67;2.47;;;12.60;99.90;;;;;;5021155;28;21075;-71
2024/03/30 08:22:38;;;;;;;2.73;2.30;;;12.70;99.90;;;;;;5023600;28;20491;-71
2024/03/30 08:25:06;;;;;;;3.07;2.27;;;12.80;99.90;;;;;;5024002;28;20831;-71
2024/03/30 08:27:33;;;;;;;2.73;2.50;;;12.90;99.90;;;;;;5022336;28;20471;-71
2024/03/30 08:30:00;;;;;;;6.90;2.43;;;13.00;99.90;;;;;;5020294;28;20541;-71
2024/03/30 08:32:26;;;;;;;2.97;2.60;;;13.10;99.90;;;;;;5024036;28;20463;-72
2024/03/30 08:34:53;;;;;;;2.60;2.40;;;13.20;99.90;;;;;;5015551;28;21042;-72
2024/03/30 08:37:22;;;;;;;2.70;2.50;;;13.30;99.90;;;;;;5024115;28;20840;-71
2024/03/30 08:39:50;;;;;;;2.53;2.33;;;13.40;99.90;;;;;;5022865;28;20490;-71
2024/03/30 08:42:16;;;;;;;2.90;2.70;;;13.50;99.90;;;;;;5024158;28;20568;-72
2024/03/30 08:44:43;;;;;;;3.00;2.43;;;13.60;99.90;;;;;;5022967;28;20537;-72
2024/03/30 08:47:10;;;;;;;3.63;2.57;;;13.70;99.90;;;;;;5021961;28;20906;-71
2024/03/30 08:49:37;;;;;;;2.30;2.20;;;13.80;99.90;;;;;;5022303;28;20528;-72
2024/03/30 08:52:04;;;;;;;2.53;2.33;;;13.90;99.90;;;;;;5020079;28;20469;-72
2024/03/30 08:54:32;;;;;;;2.23;2.13;;;14.00;99.90;;;;;;5016290;28;21043;-71
2024/03/30 08:56:58;;;;;;;3.40;2.60;;;14.10;99.90;;;;;;5022794;28;20475;-71
2024/03/30 08:59:25;;;;;;;2.43;2.20;;;14.20;99.90;;;;;;5022203;28;21050;-71
2024/03/30 09:01:54;;;;;;;2.30;2.10;;;14.30;99.90;;;;;;5023697;28;20471;-71
2024/03/30 09:04:21;;;;;;;2.10;1.83;;;14.30;99.90;;;;;;5022293;28;20515;-71
2024/03/30 09:06:47;;;;;;;2.13;2.00;;;14.40;99.90;;;;;;5027841;28;21126;-71
2024/03/30 09:09:17;;;;;;;2.43;2.17;;;14.50;99.90;;;;;;5027406;28;20885;-72
2024/03/30 09:11:45;;;;;;;2.10;1.90;;;14.60;99.90;;;;;;5022858;28;20488;-71
2024/03/30 09:14:12;;;;;;;2.43;2.23;;;14.60;99.90;;;;;;5024874;28;20482;-71
2024/03/30 09:16:38;;;;;;;2.20;2.00;;;14.70;99.90;;;;;;5026970;28;20767;-71
2024/03/30 09:19:05;;;;;;;2.60;2.23;;;14.80;99.90;;;;;;5024791;28;22034;-71
2024/03/30 09:21:31;;;;;;;3.63;2.20;;;14.80;99.90;;;;;;5024295;28;20486;-71
2024/03/30 09:23:58;;;;;;;2.07;1.90;;;14.90;99.90;;;;;;5027582;28;20494;-71
2024/03/30 09:26:24;;;;;;;2.20;1.77;;;15.00;99.90;;;;;;5027308;28;20541;-71
2024/03/30 09:28:52;;;;;;;2.03;1.90;;;15.00;99.90;;;;;;5025305;28;20474;-72
2024/03/30 09:31:18;;;;;;;1.93;1.73;;;15.00;99.90;;;;;;5026617;28;20533;-73
2024/03/30 09:33:45;;;;;;;1.73;1.63;;;15.10;99.90;;;;;;5021270;28;20542;-72
2024/03/30 09:36:14;;;;;;;2.27;1.80;;;15.20;99.90;;;;;;5026947;28;20487;-73
2024/03/30 09:38:41;;;;;;;2.10;1.90;;;15.20;99.90;;;;;;5024657;28;20479;-73
2024/03/30 09:41:11;;;;;;;2.70;2.03;;;15.20;99.90;;;;;;5024844;28;20546;-72
2024/03/30 09:43:40;;;;;;;2.50;2.30;;;15.20;99.90;;;;;;5027138;28;20541;-72
2024/03/30 09:46:08;;;;;;;2.60;2.20;;;15.20;99.90;;;;;;5026679;28;21575;-72
2024/03/30 09:48:37;;;;;;;2.27;2.03;;;15.20;99.90;;;;;;5025651;28;20839;-72
2024/03/30 09:51:07;;;;;;;3.57;2.60;;;15.30;99.90;;;;;;5024107;28;20864;-72
2024/03/30 09:53:38;;;;;;;2.60;2.40;;;15.40;99.90;;;;;;5021600;28;20487;-74
2024/03/30 09:56:05;;;;;;;3.13;2.60;;;15.40;99.90;;;;;;5025166;28;20471;-72
2024/03/30 09:58:34;;;;;;;3.70;2.57;;;15.50;99.90;;;;;;5026621;28;20474;-72
2024/03/30 10:01:03;;;;;;;2.77;2.57;;;15.50;99.90;;;;;;5023171;28;20557;-72
2024/03/30 10:03:31;;;;;;;2.90;2.70;;;15.60;99.90;;;;;;5024228;28;21157;-72
2024/03/30 10:06:02;;;;;;;3.07;2.83;;;15.60;99.90;;;;;;5026592;28;20522;-72
2024/03/30 10:08:35;;;;;;;4.73;3.10;;;15.70;99.90;;;;;;5027406;28;20467;-72
2024/03/30 10:11:09;;;;;;;3.17;2.87;;;15.80;99.90;;;;;;5023377;28;20486;-72
2024/03/30 10:13:39;;;;;;;3.20;2.83;;;15.90;99.90;;;;;;5026756;28;20495;-72
2024/03/30 10:16:05;;;;;;;3.00;2.70;;;15.90;99.90;;;;;;5025723;28;20531;-73
2024/03/30 10:18:34;;;;;;;4.63;4.10;;;16.00;99.90;;;;;;5023910;28;20471;-72
2024/03/30 10:21:03;;;;;;;3.90;3.50;;;16.10;99.90;;;;;;5024094;28;20495;-72
2024/03/30 10:23:30;;;;;;;5.80;4.70;;;16.20;99.90;;;;;;5026560;28;20502;-72
2024/03/30 10:25:56;;;;;;;4.03;3.60;;;16.30;99.90;;;;;;5019132;28;20858;-72
2024/03/30 10:28:23;;;;;;;3.13;2.87;;;16.30;99.90;;;;;;5023377;28;20482;-72
2024/03/30 10:30:49;;;;;;;3.57;3.27;;;16.40;99.90;;;;;;5024734;28;20480;-72
2024/03/30 10:33:19;;;;;;;4.80;3.53;;;16.50;99.90;;;;;;5024630;28;20564;-72
2024/03/30 10:35:49;;;;;;;4.00;3.60;;;16.60;99.90;;;;;;5026117;28;20496;-72
2024/03/30 10:38:16;;;;;;;4.17;3.87;;;16.60;99.90;;;;;;5025003;28;20470;-72
2024/03/30 10:40:43;;;;;;;4.17;3.33;;;16.70;99.90;;;;;;5024851;28;20483;-73
2024/03/30 10:43:10;;;;;;;7.90;4.77;;;16.80;99.90;;;;;;5018712;28;21301;-72
2024/03/30 10:45:36;;;;;;;4.37;4.07;;;16.90;99.90;;;;;;5025233;28;20870;-72
2024/03/30 10:48:06;;;;;;;4.30;3.90;;;17.00;99.90;;;;;;5024396;28;20884;-72
2024/03/30 10:50:32;;;;;;;5.13;4.27;;;17.10;99.90;;;;;;5025764;28;20623;-73
2024/03/30 10:53:05;;;;;;;6.27;4.60;;;17.20;99.90;;;;;;5021924;28;20483;-73
2024/03/30 10:55:35;;;;;;;4.10;3.70;;;17.30;99.90;;;;;;5026229;28;20836;-73
2024/03/30 10:58:02;;;;;;;6.10;3.27;;;17.30;99.90;;;;;;5023348;28;20471;-72
2024/03/30 11:00:29;;;;;;;3.20;2.90;;;17.50;99.90;;;;;;5025495;28;20467;-72
2024/03/30 11:02:59;;;;;;;4.30;2.90;;;17.50;99.90;;;;;;5022873;28;20510;-72
2024/03/30 11:05:27;;;;;;;3.90;2.90;;;17.50;99.90;;;;;;5024929;28;20474;-72
2024/03/30 11:07:56;;;;;;;6.47;3.60;;;17.60;99.90;;;;;;5023698;28;20470;-72
2024/03/30 11:10:24;;;;;;;3.30;2.40;;;17.70;99.90;;;;;;5023839;28;20495;-73
2024/03/30 11:12:51;;;;;;;6.10;3.67;;;17.80;99.90;;;;;;5022658;28;21012;-72
2024/03/30 11:15:21;;;;;;;4.57;3.50;;;17.90;99.90;;;;;;5023764;28;20487;-72
2024/03/30 11:17:55;;;;;;;4.80;3.30;;;17.90;99.90;;;;;;5022594;28;21019;-73
2024/03/30 11:20:25;;;;;;;2.70;2.37;;;18.00;99.90;;;;;;5020914;28;20523;-73
2024/03/30 11:22:56;;;;;;;3.17;2.87;;;18.00;99.90;;;;;;5023258;28;20483;-72
2024/03/30 11:25:29;;;;;;;6.73;2.90;;;18.00;99.90;;;;;;5024511;28;20457;-74
2024/03/30 11:28:05;;;;;;;4.77;3.30;;;18.00;99.90;;;;;;5024689;28;20472;-73
2024/03/30 11:30:36;;;;;;;3.23;2.90;;;18.10;99.90;;;;;;5021489;28;20514;-73
2024/03/30 11:33:12;;;;;;;4.70;2.77;;;18.20;99.90;;;;;;5025151;28;20491;-73
2024/03/30 11:35:44;;;;;;;5.10;2.57;;;18.20;99.90;;;;;;5025057;28;20960;-72
2024/03/30 11:38:12;;;;;;;4.77;2.70;;;18.30;99.90;;;;;;5022815;28;20853;-73
2024/03/30 11:40:48;;;;;;;5.80;2.90;;;18.30;99.90;;;;;;5023365;28;20483;-74
2024/03/30 11:43:24;;;;;;;6.70;2.83;;;18.30;99.90;;;;;;5025233;28;20860;-73
2024/03/30 11:45:50;;;;;;;7.07;2.90;;;18.40;99.90;;;;;;5038215;28;20467;-77
2024/03/30 11:48:18;;;;;;;7.43;3.20;;;18.30;99.90;;;;;;5023879;28;20480;-72
2024/03/30 11:50:45;;;;;;;4.40;2.43;;;18.30;99.90;;;;;;5025332;28;20480;-73
2024/03/30 11:53:16;;;;;;;6.67;2.97;;;18.20;99.90;;;;;;5020634;28;20913;-73
2024/03/30 11:55:44;;;;;;;3.80;2.83;;;18.20;99.90;;;;;;5018670;28;20475;-73
2024/03/30 11:58:20;;;;;;;5.20;2.53;;;18.20;99.90;;;;;;5024078;28;20480;-73
2024/03/30 12:00:47;;;;;;;7.27;3.37;;;18.20;99.90;;;;;;5023681;28;20490;-73
2024/03/30 12:03:16;;;;;;;5.37;3.30;;;18.20;99.90;;;;;;5024604;28;20487;-74
2024/03/30 12:05:44;;;;;;;5.87;3.10;;;18.20;99.90;;;;;;5022883;28;20467;-73
2024/03/30 12:08:12;;;;;;;5.67;3.60;;;18.20;99.90;;;;;;5018297;28;21243;-73
2024/03/30 12:10:53;;;;;;;8.43;3.20;;;18.20;99.90;;;;;;5022543;28;20486;-72
2024/03/30 12:13:21;;;;;;;9.03;3.77;;;18.20;99.90;;;;;;5020969;28;20525;-73
2024/03/30 12:15:48;;;;;;;7.33;3.53;;;18.20;99.90;;;;;;5022693;28;20478;-72
2024/03/30 12:18:16;;;;;;;8.10;3.83;;;18.20;99.90;;;;;;5024086;28;20459;-72
2024/03/30 12:20:43;;;;;;;6.93;3.40;;;18.30;99.90;;;;;;5021263;28;20601;-72
2024/03/30 12:23:12;;;;;;;7.83;3.30;;;18.30;99.90;;;;;;5022051;28;21001;-72
2024/03/30 12:25:40;;;;;;;14.17;3.90;;;18.40;99.90;;;;;;5025689;28;20470;-72
2024/03/30 12:28:08;;;;;;;9.43;3.20;;;18.50;99.90;;;;;;5021926;28;20472;-72
2024/03/30 12:30:39;;;;;;;6.63;2.97;;;18.60;99.90;;;;;;5020880;28;20529;-72
2024/03/30 12:33:06;;;;;;;8.53;3.13;;;18.70;99.90;;;;;;5023415;28;20491;-72
2024/03/30 12:35:34;;;;;;;13.70;3.80;;;18.70;99.90;;;;;;5024134;28;20483;-73
2024/03/30 12:38:01;;;;;;;8.93;3.87;;;18.80;99.90;;;;;;5026971;28;20471;-72
2024/03/30 12:40:31;;;;;;;9.33;4.30;;;18.80;99.90;;;;;;5023988;28;21096;-72
2024/03/30 12:42:58;;;;;;;10.63;3.40;;;18.80;99.90;;;;;;5026919;28;20492;-72
2024/03/30 12:45:26;;;;;;;14.67;4.67;;;18.80;99.90;;;;;;5025270;28;20468;-72
2024/03/30 12:47:54;;;;;;;6.20;3.43;;;18.80;99.90;;;;;;5043040;28;20479;-72
2024/03/30 12:50:21;;;;;;;8.90;3.37;;;18.80;99.90;;;;;;5028734;28;20482;-72